createdAt,value
2023-05-12T00:02:26.920Z,12.00
2023-05-12T00:04:58.820Z,12.38
2023-05-12T00:07:28.367Z,12.23
2023-05-12T00:09:58.042Z,13.00
2023-05-12T00:12:27.826Z,8.05
2023-05-12T00:14:57.589Z,12.48
2023-05-12T00:17:27.564Z,10.77
2023-05-12T00:19:59.339Z,12.45
2023-05-12T00:22:41.892Z,14.00
2023-05-12T00:25:11.618Z,11.85
2023-05-12T00:27:41.752Z,13.07
2023-05-12T00:30:17.492Z,10.63
2023-05-12T00:32:52.406Z,15.77
2023-05-12T00:35:23.893Z,12.85
2023-05-12T00:37:53.262Z,10.45
2023-05-12T00:40:25.194Z,16.90
2023-05-12T00:42:54.626Z,13.43
2023-05-12T00:45:24.065Z,9.57
2023-05-12T00:47:54.322Z,14.90
2023-05-12T00:50:25.731Z,9.55
2023-05-12T00:55:36.163Z,15.88
2023-05-12T00:58:05.797Z,13.30
2023-05-12T01:00:40.184Z,13.52
2023-05-12T01:03:10.957Z,9.27
2023-05-12T01:05:50.718Z,11.75
2023-05-12T01:08:22.872Z,9.75
2023-05-12T01:13:22.540Z,10.80
2023-05-12T01:15:53.968Z,16.58
2023-05-12T01:18:25.225Z,16.45
2023-05-12T01:20:58.324Z,9.63
2023-05-12T01:23:36.667Z,12.63
2023-05-12T01:29:07.042Z,12.52
2023-05-12T01:31:37.161Z,13.45
2023-05-12T01:34:06.977Z,10.90
2023-05-12T01:36:36.359Z,12.90
2023-05-12T01:39:10.727Z,8.98
2023-05-12T01:41:42.153Z,12.80
2023-05-12T01:44:11.946Z,7.32
2023-05-12T01:46:42.012Z,15.23
2023-05-12T01:49:11.842Z,8.00
2023-05-12T01:51:41.143Z,11.18
2023-05-12T01:54:15.857Z,12.95
2023-05-12T01:56:47.448Z,13.43
2023-05-12T01:59:17.536Z,9.55
2023-05-12T02:01:46.812Z,10.40
2023-05-12T02:04:27.778Z,13.27
2023-05-12T02:06:58.857Z,12.43
2023-05-12T02:09:28.212Z,10.30
2023-05-12T02:12:04.070Z,16.13
2023-05-12T02:14:43.731Z,13.93
2023-05-12T02:17:13.415Z,19.10
2023-05-12T02:19:42.830Z,17.02
2023-05-12T02:22:14.775Z,16.55
2023-05-12T02:24:45.895Z,14.63
2023-05-12T02:27:17.236Z,14.02
2023-05-12T02:29:46.654Z,14.32
2023-05-12T02:32:16.931Z,12.25
2023-05-12T02:34:51.962Z,10.40
2023-05-12T02:37:21.249Z,11.23
2023-05-12T02:39:50.693Z,11.93
2023-05-12T02:42:27.931Z,15.63
2023-05-12T02:44:57.390Z,7.85
2023-05-12T02:47:26.744Z,9.05
2023-05-12T02:49:56.688Z,9.05
2023-05-12T02:52:25.981Z,8.15
2023-05-12T02:55:00.522Z,9.60
2023-05-12T02:57:33.594Z,10.45
2023-05-12T03:00:04.645Z,9.45
2023-05-12T03:02:38.063Z,10.88
2023-05-12T03:05:12.419Z,9.73
2023-05-12T03:07:41.796Z,12.13
2023-05-12T03:10:11.974Z,9.95
2023-05-12T03:12:48.710Z,12.15
2023-05-12T03:15:18.332Z,7.85
2023-05-12T03:17:57.804Z,7.53
2023-05-12T03:20:27.232Z,12.75
2023-05-12T03:22:56.719Z,11.85
2023-05-12T03:25:26.691Z,11.43
2023-05-12T03:27:58.351Z,9.98
2023-05-12T03:30:32.162Z,12.93
2023-05-12T03:33:06.607Z,11.25
2023-05-12T03:35:36.145Z,12.02
2023-05-12T03:38:05.894Z,11.82
2023-05-12T03:40:35.308Z,10.63
2023-05-12T03:43:07.318Z,11.73
2023-05-12T03:45:41.666Z,9.55
2023-05-12T03:48:12.023Z,13.75
2023-05-12T03:50:41.479Z,12.57
2023-05-12T03:53:10.690Z,7.18
2023-05-12T03:58:23.989Z,11.45
2023-05-12T04:00:53.247Z,10.77
2023-05-12T04:03:22.653Z,12.75
2023-05-12T04:06:00.937Z,14.27
2023-05-12T04:08:31.093Z,10.70
2023-05-12T04:11:01.722Z,14.13
2023-05-12T04:13:33.616Z,8.75
2023-05-12T04:18:32.345Z,12.35
2023-05-12T04:21:02.467Z,13.23
2023-05-12T04:23:32.079Z,13.15
2023-05-12T04:26:02.230Z,12.27
2023-05-12T04:28:39.359Z,9.07
2023-05-12T04:31:14.151Z,8.40
2023-05-12T04:33:44.075Z,11.35
2023-05-12T04:36:14.758Z,11.80
2023-05-12T04:38:55.018Z,10.77
2023-05-12T04:41:24.911Z,11.40
2023-05-12T04:46:35.703Z,19.53
2023-05-12T04:49:05.273Z,18.10
2023-05-12T04:51:34.641Z,9.48
2023-05-12T04:54:03.871Z,10.15
2023-05-12T04:59:17.446Z,12.23
2023-05-12T05:01:49.488Z,13.85
2023-05-12T05:04:19.082Z,10.23
2023-05-12T05:06:49.016Z,9.93
2023-05-12T05:09:24.550Z,17.15
2023-05-12T05:11:54.064Z,15.13
2023-05-12T05:14:25.775Z,12.13
2023-05-12T05:16:56.043Z,9.63
2023-05-12T05:19:44.542Z,13.77
2023-05-12T05:22:31.492Z,11.50
2023-05-12T05:25:01.024Z,11.30
2023-05-12T05:27:31.110Z,11.27
2023-05-12T05:30:07.568Z,9.95
2023-05-12T05:32:40.460Z,10.85
2023-05-12T05:35:15.032Z,9.25
2023-05-12T05:37:50.501Z,10.73
2023-05-12T05:40:20.234Z,8.50
2023-05-12T05:42:49.968Z,14.35
2023-05-12T05:45:21.633Z,13.85
2023-05-12T05:47:52.878Z,7.85
2023-05-12T05:50:28.436Z,9.48
2023-05-12T05:52:57.931Z,10.18
2023-05-12T05:55:32.718Z,13.63
2023-05-12T05:58:02.456Z,7.88
2023-05-12T06:00:34.051Z,7.57
2023-05-12T06:05:33.724Z,8.85
2023-05-12T06:08:04.817Z,12.13
2023-05-12T06:10:34.684Z,7.00
2023-05-12T06:13:04.118Z,10.73
2023-05-12T06:15:37.230Z,9.23
2023-05-12T06:18:07.410Z,9.23
2023-05-12T06:20:37.009Z,8.27
2023-05-12T06:23:06.576Z,6.20
2023-05-12T06:25:35.936Z,9.05
2023-05-12T06:28:05.422Z,7.30
2023-05-12T06:30:44.112Z,4.88
2023-05-12T06:33:13.439Z,8.43
2023-05-12T06:35:42.899Z,7.38
2023-05-12T06:38:12.484Z,4.78
2023-05-12T06:40:41.863Z,6.45
2023-05-12T06:43:11.125Z,7.85
2023-05-12T06:45:50.200Z,10.32
2023-05-12T06:48:19.659Z,4.07
2023-05-12T06:50:54.530Z,8.45
2023-05-12T06:53:25.575Z,9.27
2023-05-12T06:56:00.453Z,8.38
2023-05-12T06:58:29.921Z,5.85
2023-05-12T07:01:01.667Z,5.05
2023-05-12T07:03:34.325Z,6.93
2023-05-12T07:06:04.035Z,4.70
2023-05-12T07:08:33.466Z,7.30
2023-05-12T07:11:08.042Z,6.07
2023-05-12T07:13:37.898Z,6.43
2023-05-12T07:16:09.866Z,6.22
2023-05-12T07:18:39.468Z,3.40
2023-05-12T07:21:08.986Z,3.80
2023-05-12T07:23:43.981Z,2.78
2023-05-12T07:26:13.404Z,3.40
2023-05-12T07:28:42.860Z,4.30
2023-05-12T07:31:24.789Z,5.78
2023-05-12T07:33:54.564Z,4.72
2023-05-12T07:36:24.236Z,4.38
2023-05-12T07:38:58.887Z,4.72
2023-05-12T07:41:28.192Z,4.70
2023-05-12T07:43:57.593Z,4.20
2023-05-12T07:46:28.954Z,3.28
2023-05-12T07:48:58.459Z,3.47
2023-05-12T07:51:28.719Z,4.75
2023-05-12T07:53:58.483Z,6.10
2023-05-12T07:56:27.772Z,3.78
2023-05-12T07:59:04.033Z,2.17
2023-05-12T08:01:45.236Z,4.40
2023-05-12T08:04:15.087Z,2.03
2023-05-12T08:06:44.568Z,3.80
2023-05-12T08:09:14.012Z,7.53
2023-05-12T08:11:46.525Z,3.28
2023-05-12T08:14:16.986Z,4.10
2023-05-12T08:16:53.395Z,5.43
2023-05-12T08:19:22.727Z,5.20
2023-05-12T08:21:52.118Z,4.60
2023-05-12T08:24:21.627Z,4.15
2023-05-12T08:26:50.845Z,4.22
2023-05-12T08:29:31.349Z,2.50
2023-05-12T08:32:07.170Z,2.65
2023-05-12T08:34:41.640Z,2.42
2023-05-12T08:37:11.685Z,2.42
2023-05-12T08:39:41.070Z,4.00
2023-05-12T08:42:19.583Z,2.67
2023-05-12T08:44:49.688Z,3.22
2023-05-12T08:47:22.818Z,9.73
2023-05-12T08:50:00.444Z,2.10
2023-05-12T08:52:38.912Z,5.03
2023-05-12T08:55:11.142Z,5.30
2023-05-12T08:57:48.154Z,4.88
2023-05-12T09:00:19.238Z,3.05
2023-05-12T09:02:53.984Z,1.88
2023-05-12T09:05:24.609Z,1.90
2023-05-12T09:10:35.474Z,3.40
2023-05-12T09:13:15.506Z,5.63
2023-05-12T09:15:47.428Z,2.28
2023-05-12T09:18:24.158Z,5.70
2023-05-12T09:20:58.747Z,2.03
2023-05-12T09:23:28.085Z,2.75
2023-05-12T09:26:03.629Z,5.43
2023-05-12T09:28:40.265Z,2.15
2023-05-12T09:31:19.855Z,2.65
2023-05-12T09:33:57.033Z,5.03
2023-05-12T09:36:33.013Z,6.07
2023-05-12T09:39:09.305Z,5.13
2023-05-12T09:41:50.372Z,2.88
2023-05-12T09:44:20.983Z,2.42
2023-05-12T09:46:51.265Z,3.30
2023-05-12T09:49:29.380Z,2.88
2023-05-12T09:52:00.391Z,3.17
2023-05-12T09:54:30.668Z,2.60
2023-05-12T09:57:02.629Z,2.67
2023-05-12T09:59:33.977Z,2.40
2023-05-12T10:02:07.952Z,3.55
2023-05-12T10:04:45.202Z,3.30
2023-05-12T10:07:24.244Z,5.35
2023-05-12T10:09:54.740Z,2.55
2023-05-12T10:12:24.307Z,3.17
2023-05-12T10:14:54.033Z,7.60
2023-05-12T10:17:38.719Z,3.30
2023-05-12T10:20:11.893Z,5.47
2023-05-12T10:22:47.217Z,5.30
2023-05-12T10:25:19.157Z,3.03
2023-05-12T10:27:51.180Z,6.05
2023-05-12T10:30:20.894Z,5.18
2023-05-12T10:32:50.658Z,2.80
2023-05-12T10:35:27.241Z,6.22
2023-05-12T10:37:56.684Z,4.13
2023-05-12T10:40:26.663Z,4.25
2023-05-12T10:43:01.575Z,3.45
2023-05-12T10:45:31.505Z,6.25
2023-05-12T10:48:08.932Z,4.25
2023-05-12T10:50:54.565Z,4.72
2023-05-12T10:53:41.388Z,6.68
2023-05-12T10:56:35.499Z,3.72
2023-05-12T10:59:22.125Z,5.28
2023-05-12T11:02:04.082Z,3.42
2023-05-12T11:04:50.348Z,4.85
2023-05-12T11:07:26.470Z,4.75
2023-05-12T11:09:59.579Z,3.15
2023-05-12T11:12:43.700Z,6.70
2023-05-12T11:15:16.023Z,5.95
2023-05-12T11:17:48.015Z,3.95
2023-05-12T11:23:03.476Z,5.55
2023-05-12T11:25:32.889Z,4.15
2023-05-12T11:28:03.404Z,6.53
2023-05-12T11:30:32.859Z,4.65
2023-05-12T11:33:03.127Z,4.18
2023-05-12T11:35:33.507Z,3.97
2023-05-12T11:38:04.782Z,3.25
2023-05-12T11:40:34.320Z,7.18
2023-05-12T11:43:12.056Z,3.80
2023-05-12T11:45:42.042Z,2.67
2023-05-12T11:48:12.711Z,6.90
2023-05-12T11:50:46.420Z,3.60
2023-05-12T11:53:19.669Z,4.57
2023-05-12T11:55:54.452Z,6.65
2023-05-12T11:58:29.570Z,3.28
2023-05-12T12:00:59.958Z,6.18
2023-05-12T12:03:29.281Z,3.30
2023-05-12T12:06:06.471Z,3.10
2023-05-12T12:08:40.230Z,3.75
2023-05-12T12:11:14.625Z,4.28
2023-05-12T12:13:52.330Z,4.13
2023-05-12T12:16:21.808Z,5.95
2023-05-12T12:18:56.407Z,3.10
2023-05-12T12:21:27.225Z,7.22
2023-05-12T12:23:59.143Z,6.63
2023-05-12T12:26:28.690Z,4.75
2023-05-12T12:28:58.702Z,4.15
2023-05-12T12:31:28.196Z,3.05
2023-05-12T12:34:03.404Z,5.22
2023-05-12T12:36:34.419Z,3.20
2023-05-12T12:39:06.602Z,1.77
2023-05-12T12:41:36.283Z,4.45
2023-05-12T12:51:46.853Z,4.20
2023-05-12T12:54:16.963Z,2.60
2023-05-12T12:56:46.966Z,3.30
2023-05-12T12:59:16.556Z,5.00
2023-05-12T13:01:46.827Z,5.38
2023-05-12T13:04:19.270Z,6.55
2023-05-12T13:06:50.936Z,8.35
2023-05-12T13:09:26.676Z,4.47
2023-05-12T13:11:56.227Z,3.88
2023-05-12T13:14:25.847Z,5.53
2023-05-12T13:16:55.522Z,4.57
2023-05-12T13:19:24.811Z,5.68
2023-05-12T13:21:56.507Z,3.70
2023-05-12T13:24:25.932Z,3.65
2023-05-12T13:26:55.252Z,3.67
2023-05-12T13:29:24.622Z,4.40
2023-05-12T13:31:54.026Z,2.20
2023-05-12T13:34:23.702Z,5.18
2023-05-12T13:36:58.040Z,3.35
2023-05-12T13:43:21.206Z,4.03
2023-05-12T13:45:50.704Z,3.20
2023-05-12T13:48:20.486Z,3.55
2023-05-12T13:50:50.108Z,2.67
2023-05-12T13:53:19.503Z,3.67
2023-05-12T13:55:48.956Z,1.95
2023-05-12T13:58:18.288Z,2.00
2023-05-12T14:00:49.748Z,3.33
2023-05-12T14:03:19.118Z,2.85
2023-05-12T14:05:48.453Z,2.30
2023-05-12T14:08:22.946Z,3.97
2023-05-12T14:10:52.502Z,5.28
2023-05-12T14:13:21.736Z,3.75
2023-05-12T14:15:53.290Z,6.07
2023-05-12T14:18:23.098Z,4.95
2023-05-12T14:20:52.826Z,3.72
2023-05-12T14:23:27.242Z,5.43
2023-05-12T14:26:03.439Z,5.68
2023-05-12T14:28:37.096Z,2.95
2023-05-12T14:31:08.765Z,10.23
2023-05-12T14:33:43.191Z,6.35
2023-05-12T14:36:18.621Z,3.78
2023-05-12T14:38:53.879Z,4.95
2023-05-12T14:41:24.108Z,6.10
2023-05-12T14:43:53.422Z,3.15
2023-05-12T14:46:25.352Z,4.25
2023-05-12T14:48:54.788Z,4.43
2023-05-12T14:51:24.298Z,2.83
2023-05-12T14:53:54.684Z,4.13
2023-05-12T14:56:29.936Z,3.67
2023-05-12T14:58:59.378Z,5.03
2023-05-12T15:01:30.805Z,4.30
2023-05-12T15:06:29.798Z,8.95
2023-05-12T15:08:59.109Z,5.35
2023-05-12T15:11:34.372Z,4.43
2023-05-12T15:14:14.747Z,3.88
2023-05-12T15:16:46.299Z,4.53
2023-05-12T15:19:17.090Z,3.90
2023-05-12T15:21:46.618Z,3.53
2023-05-12T15:24:15.961Z,5.97
2023-05-12T15:26:45.611Z,3.78
2023-05-12T15:29:14.986Z,4.45
2023-05-12T15:31:46.322Z,5.13
2023-05-12T15:34:20.772Z,6.25
2023-05-12T15:36:50.589Z,3.97
2023-05-12T15:39:21.099Z,4.78
2023-05-12T15:42:04.001Z,4.15
2023-05-12T15:44:34.784Z,4.53
2023-05-12T15:47:06.684Z,6.50
2023-05-12T15:49:36.313Z,6.25
2023-05-12T15:52:06.013Z,4.22
2023-05-12T15:54:35.730Z,4.25
2023-05-12T15:57:07.062Z,10.30
2023-05-12T15:59:37.172Z,6.88
2023-05-12T16:02:09.123Z,6.78
2023-05-12T16:04:39.063Z,4.45
2023-05-12T16:07:08.436Z,6.80
2023-05-12T16:09:37.810Z,5.47
2023-05-12T16:12:14.044Z,6.05
2023-05-12T16:14:43.460Z,3.80
2023-05-12T16:17:19.672Z,2.55
2023-05-12T16:19:49.998Z,4.35
2023-05-12T16:22:19.280Z,5.95
2023-05-12T16:24:49.059Z,5.43
2023-05-12T16:27:18.552Z,6.93
2023-05-12T16:29:54.231Z,3.90
2023-05-12T16:32:25.921Z,9.27
2023-05-12T16:37:26.146Z,8.45
2023-05-12T16:40:00.916Z,10.63
2023-05-12T16:42:30.534Z,5.45
2023-05-12T16:45:00.220Z,7.65
2023-05-12T16:47:31.810Z,4.68
2023-05-12T16:50:01.403Z,5.80
2023-05-12T16:52:41.293Z,5.03
2023-05-12T16:55:11.702Z,3.47
2023-05-12T16:57:42.746Z,4.45
2023-05-12T17:02:45.288Z,7.50
2023-05-12T17:05:14.858Z,3.45
2023-05-12T17:07:44.340Z,6.72
2023-05-12T17:10:13.750Z,3.47
2023-05-12T17:12:43.115Z,3.80
2023-05-12T17:15:18.147Z,6.88
2023-05-12T17:17:49.890Z,7.45
2023-05-12T17:20:24.327Z,5.22
2023-05-12T17:22:53.761Z,9.25
2023-05-12T17:25:23.931Z,6.75
2023-05-12T17:27:58.512Z,9.63
2023-05-12T17:30:33.082Z,10.48
2023-05-12T17:33:04.911Z,5.63
2023-05-12T17:35:40.163Z,5.90
2023-05-12T17:38:09.612Z,5.13
2023-05-12T17:40:39.175Z,7.70
2023-05-12T17:43:08.468Z,10.23
2023-05-12T17:45:37.781Z,4.43
2023-05-12T17:48:09.375Z,6.18
2023-05-12T17:50:43.975Z,4.55
2023-05-12T17:53:13.440Z,5.68
2023-05-12T17:55:42.871Z,6.72
2023-05-12T17:58:13.480Z,6.35
2023-05-12T18:00:43.168Z,7.57
2023-05-12T18:03:14.974Z,7.20
2023-05-12T18:05:44.650Z,7.30
2023-05-12T18:08:14.740Z,8.32
2023-05-12T18:10:44.145Z,7.25
2023-05-12T18:13:14.263Z,5.88
2023-05-12T18:15:43.745Z,6.75
2023-05-12T18:18:21.908Z,8.75
2023-05-12T18:20:51.379Z,5.10
2023-05-12T18:23:32.021Z,4.25
2023-05-12T18:26:01.414Z,7.15
2023-05-12T18:28:30.847Z,7.43
2023-05-12T18:31:15.871Z,8.32
2023-05-12T18:33:50.455Z,6.57
2023-05-12T18:36:20.570Z,7.57
2023-05-12T18:38:50.097Z,6.65
2023-05-12T18:41:19.378Z,7.65
2023-05-12T18:43:49.944Z,5.38
2023-05-12T18:46:20.635Z,9.60
2023-05-12T18:51:32.892Z,6.63
2023-05-12T18:54:07.458Z,3.38
2023-05-12T18:56:37.029Z,9.77
2023-05-12T18:59:06.250Z,7.93
2023-05-12T19:01:36.232Z,6.20
2023-05-12T19:04:07.755Z,6.75
2023-05-12T19:06:37.213Z,6.18
2023-05-12T19:09:06.627Z,5.78
2023-05-12T19:11:36.357Z,5.30
2023-05-12T19:14:11.873Z,11.20
2023-05-12T19:16:42.011Z,5.43
2023-05-12T19:19:13.953Z,7.97
2023-05-12T19:21:43.553Z,7.13
2023-05-12T19:24:13.248Z,7.85
2023-05-12T19:26:42.906Z,4.45
2023-05-12T19:29:12.967Z,7.30
2023-05-12T19:31:42.799Z,6.90
2023-05-12T19:34:14.514Z,8.95
2023-05-12T19:39:13.294Z,5.35
2023-05-12T19:41:53.101Z,8.07
2023-05-12T19:44:22.626Z,5.97
2023-05-12T19:46:52.427Z,6.00
2023-05-12T19:49:23.937Z,6.88
2023-05-12T19:51:53.663Z,6.20
2023-05-12T19:54:22.987Z,7.72
2023-05-12T19:56:53.640Z,6.88
2023-05-12T19:59:24.145Z,12.05
2023-05-12T20:01:54.983Z,7.45
2023-05-12T20:04:27.850Z,9.82
2023-05-12T20:06:57.387Z,7.07
2023-05-12T20:09:38.587Z,8.07
2023-05-12T20:12:09.117Z,10.27
2023-05-12T20:14:38.475Z,6.70
2023-05-12T20:17:13.129Z,5.70
2023-05-12T20:19:44.730Z,8.75
2023-05-12T20:22:19.229Z,6.57
2023-05-12T20:24:48.830Z,7.60
2023-05-12T20:27:18.389Z,10.77
2023-05-12T20:29:48.816Z,8.75
2023-05-12T20:32:18.136Z,7.53
2023-05-12T20:34:49.582Z,10.75
2023-05-12T20:37:19.207Z,15.05
2023-05-12T20:39:48.893Z,12.93
2023-05-12T20:42:18.276Z,15.73
2023-05-12T20:44:49.729Z,19.63
2023-05-12T20:49:50.914Z,13.10
2023-05-12T20:52:25.390Z,16.02
2023-05-12T20:54:59.226Z,16.83
2023-05-12T20:57:29.125Z,14.45
2023-05-12T20:59:58.512Z,12.25
2023-05-12T21:02:34.299Z,10.80
2023-05-12T21:05:06.276Z,9.40
2023-05-12T21:07:35.711Z,14.23
2023-05-12T21:10:05.656Z,13.40
2023-05-12T21:12:40.540Z,10.68
2023-05-12T21:15:12.816Z,13.70
2023-05-12T21:17:42.811Z,14.05
2023-05-12T21:20:14.710Z,15.98
2023-05-12T21:22:45.239Z,11.85
2023-05-12T21:25:14.624Z,11.25
2023-05-12T21:27:44.032Z,9.85
2023-05-12T21:30:14.052Z,8.00
2023-05-12T21:32:43.600Z,13.10
2023-05-12T21:35:14.899Z,11.98
2023-05-12T21:37:44.933Z,12.77
2023-05-12T21:40:15.987Z,10.68
2023-05-12T21:42:45.748Z,12.20
2023-05-12T21:45:15.480Z,11.93
2023-05-12T21:47:50.990Z,14.63
2023-05-12T21:50:22.842Z,13.45
2023-05-12T21:52:52.552Z,11.75
2023-05-12T21:55:22.166Z,9.98
2023-05-12T21:57:51.738Z,10.93
2023-05-12T22:00:22.059Z,8.57
2023-05-12T22:03:00.879Z,14.40
2023-05-12T22:05:37.364Z,15.10
2023-05-12T22:08:07.129Z,9.98
2023-05-12T22:10:36.735Z,14.57
2023-05-12T22:13:12.278Z,19.40
2023-05-12T22:15:41.828Z,10.98
2023-05-12T22:18:16.354Z,9.55
2023-05-12T22:20:48.682Z,10.82
2023-05-12T22:23:23.407Z,11.30
2023-05-12T22:25:52.658Z,11.60
2023-05-12T22:28:22.107Z,13.38
2023-05-12T22:30:51.490Z,10.25
2023-05-12T22:33:21.016Z,17.20
2023-05-12T22:35:52.230Z,14.48
2023-05-12T22:38:28.200Z,12.70
2023-05-12T22:40:57.900Z,12.40
2023-05-12T22:43:27.796Z,12.07
2023-05-12T22:45:57.630Z,9.10
2023-05-12T22:48:27.041Z,16.85
2023-05-12T22:50:58.347Z,10.35
2023-05-12T22:53:27.817Z,9.93
2023-05-12T22:55:57.064Z,9.35
2023-05-12T22:58:26.482Z,14.32
2023-05-12T23:00:56.465Z,16.33
2023-05-12T23:03:25.937Z,14.45
2023-05-12T23:06:02.246Z,13.10
2023-05-12T23:08:31.666Z,14.10
2023-05-12T23:11:00.846Z,16.65
2023-05-12T23:13:36.524Z,19.40
2023-05-12T23:16:10.939Z,14.77
2023-05-12T23:18:45.565Z,12.20
2023-05-12T23:21:16.972Z,14.63
2023-05-12T23:23:51.451Z,14.82
2023-05-12T23:26:22.912Z,18.13
2023-05-12T23:28:52.616Z,17.17
2023-05-12T23:31:21.963Z,25.88
2023-05-12T23:33:51.503Z,22.30
2023-05-12T23:36:23.086Z,17.30
2023-05-12T23:38:54.214Z,15.75
2023-05-12T23:41:25.235Z,19.92
2023-05-12T23:43:54.710Z,17.77
2023-05-12T23:46:24.151Z,18.35
2023-05-12T23:48:53.942Z,21.52
2023-05-12T23:51:25.586Z,17.63
2023-05-12T23:54:01.604Z,13.45
2023-05-12T23:56:30.861Z,15.30
2023-05-12T23:59:00.240Z,13.70
